Northfield Falls, VT (05664)

10:48 PM EDT on August 24, 2016 (GMT -0400)
KVTBERLI2 | | Change Station

Elev 1220 ft 44.21 °N, 72.67 °W | Updated 17 seconds ago

Clear
Clear
66.6 °F
Feels Like 66.6 °F
N
0.7
Wind Variable Wind from North
Gusts 0.7 mph

Today
High -- | Low -- °F
--% Chance of Precip.
Yesterday
High -- | Low -- °F
Precip. -- in
Pressure 30.16 in
Visibility 10.0 miles
Clouds Clear
Dew Point 62 °F
Humidity 84%
Rainfall 0.00 in
Snow Depth Not available.
6:05 AM 7:39 PM
Waning Gibbous, 50% visible
METAR KMPV 250151Z AUTO 00000KT 10SM CLR 21/13 A3017 RMK AO2 SLP211 T02110133
Pressure 30.16 in
Visibility 10.0 miles
Clouds Clear
Dew Point 62 °F
Humidity 84%
Rainfall 0.00 in
Snow Depth Not available.
6:05 AM 7:39 PM
Waning Gibbous, 50% visible
METAR KMPV 250151Z AUTO 00000KT 10SM CLR 21/13 A3017 RMK AO2 SLP211 T02110133

10-Day Weather Forecast

Almanac

Astronomy

Aug. 24, 2016 Rise Set
Actual Time
Civil Twilight
Nautical Twilight
Astronomical Twilight
Moon
Length of Visible Light
Length of Day
Tomorrow will be .
, % of the Moon is Illuminated

Today's Extremes

State Highs State Lows

Community

WunderPhotos

Upload Photos

1,934,779 photos uploaded!

WunderBlog® & News

Nearby

Air Quality

  Air Quality AQ Index Pollutant
Not available.

Snow Depth

Station Depth Elevation

Earthquake Activity

City Distance Mag. Time & Date
Minimum magnitude displayed is 2.5.

Coastal Water Temperatures

Place Temperature

Stations

Nearby Weather Stations

Station Location Temp. Windchill Dew Point Humidity Wind Precip. Elev Updated Type
                   

Watches & Warnings

There are currently no watches in effect.